createdAt,value
2022-08-26T04:04:38.475Z,72.83
2022-08-26T04:07:07.883Z,72.78
2022-08-26T04:09:42.338Z,72.83
2022-08-26T04:12:31.543Z,72.81
2022-08-26T04:18:57.346Z,72.54
2022-08-26T04:21:58.777Z,72.45
2022-08-26T04:28:11.565Z,72.34
2022-08-26T04:30:45.510Z,72.30
2022-08-26T04:33:16.565Z,72.35
2022-08-26T04:36:07.990Z,72.38
2022-08-26T04:38:38.449Z,72.30
2022-08-26T04:41:14.834Z,72.20
2022-08-26T04:43:49.384Z,71.95
2022-08-26T04:46:47.172Z,71.88
2022-08-26T04:50:03.997Z,71.90
2022-08-26T04:53:10.465Z,71.69
2022-08-26T04:55:55.434Z,71.37
2022-08-26T04:59:16.602Z,71.36
2022-08-26T05:02:37.518Z,71.21
2022-08-26T05:05:13.845Z,71.24
2022-08-26T05:08:18.439Z,70.98
2022-08-26T05:11:24.393Z,70.94
2022-08-26T05:14:08.998Z,71.04
2022-08-26T05:17:09.453Z,70.97
2022-08-26T05:21:12.653Z,70.63
2022-08-26T05:23:47.563Z,70.57
2022-08-26T05:26:48.856Z,70.35
2022-08-26T05:29:46.201Z,70.23
2022-08-26T05:32:15.616Z,69.94
2022-08-26T05:34:43.932Z,69.81
2022-08-26T05:37:12.863Z,69.59
2022-08-26T05:39:51.432Z,69.37
2022-08-26T05:42:22.196Z,69.30
2022-08-26T05:44:55.997Z,69.25
2022-08-26T05:47:50.670Z,69.02
2022-08-26T05:50:57.540Z,68.78
2022-08-26T05:54:00.831Z,68.34
2022-08-26T05:56:43.258Z,68.23
2022-08-26T05:59:16.302Z,67.90
2022-08-26T06:02:09.940Z,67.59
2022-08-26T06:05:20.339Z,67.20
2022-08-26T06:08:10.371Z,66.73
2022-08-26T06:15:53.639Z,66.84
2022-08-26T06:18:33.696Z,66.76
2022-08-26T06:21:42.243Z,66.80
2022-08-26T06:25:00.640Z,66.73
2022-08-26T06:27:32.913Z,66.42
2022-08-26T06:30:05.355Z,66.38
2022-08-26T06:32:36.386Z,66.28
2022-08-26T06:35:11.949Z,66.22
2022-08-26T06:37:45.683Z,66.22
2022-08-26T06:40:15.781Z,65.95
2022-08-26T06:42:45.703Z,65.82
2022-08-26T06:45:14.731Z,65.83
2022-08-26T06:47:43.290Z,65.64
2022-08-26T06:50:12.755Z,65.57
2022-08-26T06:52:47.364Z,65.66
2022-08-26T06:55:17.089Z,65.51
2022-08-26T06:57:47.145Z,65.54
2022-08-26T07:00:20.262Z,65.29
2022-08-26T07:02:48.656Z,65.10
2022-08-26T07:05:20.535Z,65.24
2022-08-26T07:08:26.916Z,65.05
2022-08-26T07:11:21.111Z,65.04
2022-08-26T07:14:08.240Z,64.85
2022-08-26T07:16:44.962Z,64.67
2022-08-26T07:19:30.947Z,64.64
2022-08-26T07:22:27.874Z,64.72
2022-08-26T07:25:45.000Z,64.61
2022-08-26T07:28:18.798Z,64.42
2022-08-26T07:31:10.614Z,64.35
2022-08-26T07:34:31.455Z,64.37
2022-08-26T07:37:47.536Z,64.04
2022-08-26T07:41:00.589Z,63.84
2022-08-26T07:44:02.607Z,63.67
2022-08-26T07:46:44.138Z,63.68
2022-08-26T07:49:18.520Z,63.49
2022-08-26T07:51:52.127Z,63.26
2022-08-26T07:54:27.113Z,63.29
2022-08-26T07:57:08.370Z,62.87
2022-08-26T07:59:44.504Z,63.02
2022-08-26T08:02:29.908Z,62.93
2022-08-26T08:05:04.703Z,62.71
2022-08-26T08:07:44.907Z,62.66
2022-08-26T08:10:18.135Z,62.43
2022-08-26T08:12:47.665Z,62.50
2022-08-26T08:15:18.285Z,62.52
2022-08-26T08:17:50.574Z,62.21
2022-08-26T08:20:27.014Z,62.09
2022-08-26T08:23:01.917Z,62.17
2022-08-26T08:25:33.277Z,62.13
2022-08-26T08:28:08.708Z,62.08
2022-08-26T08:30:40.918Z,61.80
2022-08-26T08:33:10.035Z,61.84
2022-08-26T08:35:42.730Z,61.53
2022-08-26T08:38:12.304Z,61.45
2022-08-26T08:40:44.629Z,61.49
2022-08-26T08:43:24.090Z,61.33
2022-08-26T08:46:14.359Z,61.47
2022-08-26T08:48:47.006Z,61.37
2022-08-26T08:51:46.454Z,61.35
2022-08-26T08:54:16.054Z,61.20
2022-08-26T08:56:59.737Z,60.99
2022-08-26T08:59:34.838Z,60.84
2022-08-26T09:02:33.488Z,60.93
2022-08-26T09:05:24.096Z,60.59
2022-08-26T09:08:22.315Z,60.36
2022-08-26T09:13:50.487Z,60.27
2022-08-26T09:17:01.492Z,60.26
2022-08-26T09:19:59.046Z,59.80
2022-08-26T09:22:54.390Z,59.58
2022-08-26T09:25:23.344Z,59.52
2022-08-26T09:27:57.643Z,59.51
2022-08-26T09:30:31.860Z,59.47
2022-08-26T09:35:59.516Z,59.30
2022-08-26T09:38:34.585Z,59.70
2022-08-26T09:41:26.589Z,59.53
2022-08-26T09:44:21.825Z,59.29
2022-08-26T09:47:14.810Z,59.63
2022-08-26T09:49:45.000Z,59.43
2022-08-26T09:52:22.665Z,59.26
2022-08-26T09:55:10.847Z,59.18
2022-08-26T09:57:55.454Z,59.10
2022-08-26T10:00:30.835Z,59.02
2022-08-26T10:03:04.868Z,59.22
2022-08-26T10:05:37.959Z,59.12
2022-08-26T10:08:33.065Z,58.72
2022-08-26T10:11:07.936Z,58.84
2022-08-26T10:13:49.213Z,58.55
2022-08-26T10:16:20.533Z,58.32
2022-08-26T10:18:56.779Z,58.46
2022-08-26T10:21:57.024Z,58.10
2022-08-26T10:24:54.505Z,58.17
2022-08-26T10:27:51.190Z,57.99
2022-08-26T10:30:32.244Z,58.02
2022-08-26T10:33:11.201Z,57.77
2022-08-26T10:35:59.410Z,57.76
2022-08-26T10:38:39.660Z,57.56
2022-08-26T10:41:16.832Z,57.17
2022-08-26T10:44:21.686Z,56.95
2022-08-26T10:47:10.118Z,57.02
2022-08-26T10:49:41.475Z,57.18
2022-08-26T10:52:29.405Z,56.80
2022-08-26T10:55:15.690Z,56.65
2022-08-26T10:58:13.395Z,56.46
2022-08-26T11:01:40.783Z,56.29
2022-08-26T11:04:39.085Z,56.16
2022-08-26T11:07:42.517Z,56.25
2022-08-26T11:10:18.004Z,56.14
2022-08-26T11:12:54.631Z,55.89
2022-08-26T11:16:03.222Z,55.63
2022-08-26T11:18:58.496Z,55.66
2022-08-26T11:22:05.843Z,55.56
2022-08-26T11:24:42.841Z,55.51
2022-08-26T11:27:32.185Z,55.32
2022-08-26T11:30:03.393Z,55.20
2022-08-26T11:32:35.071Z,55.16
2022-08-26T11:35:09.182Z,55.14
2022-08-26T11:37:44.158Z,54.76
2022-08-26T11:40:42.865Z,54.84
2022-08-26T11:43:24.354Z,54.63
2022-08-26T11:49:25.730Z,54.38
2022-08-26T11:52:22.677Z,54.32
2022-08-26T11:55:15.364Z,53.92
2022-08-26T11:57:54.311Z,53.76
2022-08-26T12:00:48.194Z,53.74
2022-08-26T12:03:24.677Z,53.95
2022-08-26T12:05:54.781Z,53.42
2022-08-26T12:08:31.720Z,53.52
2022-08-26T12:11:10.184Z,53.12
2022-08-26T12:13:39.700Z,53.13
2022-08-26T12:16:09.612Z,52.98
2022-08-26T12:18:39.913Z,52.71
2022-08-26T12:21:16.490Z,52.64
2022-08-26T12:23:51.123Z,52.41
2022-08-26T12:26:33.800Z,52.32
2022-08-26T12:29:09.981Z,52.12
2022-08-26T12:32:15.491Z,51.97
2022-08-26T12:34:49.536Z,51.94
2022-08-26T12:37:19.089Z,51.78
2022-08-26T12:39:49.423Z,51.61
2022-08-26T12:42:18.581Z,51.54
2022-08-26T12:45:01.629Z,51.67
2022-08-26T12:47:35.140Z,51.34
2022-08-26T12:50:38.871Z,51.19
2022-08-26T12:53:11.079Z,50.87
2022-08-26T12:55:44.518Z,51.01
2022-08-26T12:58:20.414Z,51.10
2022-08-26T13:00:56.014Z,50.93
2022-08-26T13:03:45.978Z,50.80
2022-08-26T13:06:24.199Z,50.48
2022-08-26T13:08:58.598Z,50.61
2022-08-26T13:11:32.330Z,50.42
2022-08-26T13:14:08.226Z,50.15
2022-08-26T13:16:39.673Z,49.92
2022-08-26T13:19:14.229Z,49.76
2022-08-26T13:21:51.158Z,49.88
2022-08-26T13:24:41.133Z,49.87
2022-08-26T13:27:14.013Z,49.48
2022-08-26T13:29:43.067Z,49.29
2022-08-26T13:32:12.341Z,49.27
2022-08-26T13:34:42.336Z,49.14
2022-08-26T13:37:11.663Z,49.06
2022-08-26T13:39:42.642Z,49.06
2022-08-26T13:42:11.609Z,49.00
2022-08-26T13:44:41.484Z,48.91
2022-08-26T13:47:16.177Z,48.86
2022-08-26T13:50:19.630Z,48.60
2022-08-26T13:52:50.275Z,48.42
2022-08-26T13:55:25.446Z,48.24
2022-08-26T13:57:57.362Z,48.35
2022-08-26T14:01:15.957Z,48.45
2022-08-26T14:04:35.542Z,48.14
2022-08-26T14:07:07.775Z,48.22
2022-08-26T14:09:38.509Z,47.97
2022-08-26T14:12:07.846Z,47.79
2022-08-26T14:14:37.010Z,47.52
2022-08-26T14:17:07.813Z,47.66
2022-08-26T14:19:38.177Z,47.70
2022-08-26T14:22:07.422Z,47.87
2022-08-26T14:24:36.647Z,47.51
2022-08-26T14:27:05.752Z,47.45
2022-08-26T14:29:34.612Z,47.52
2022-08-26T14:32:12.328Z,47.32
2022-08-26T14:34:43.033Z,47.01
2022-08-26T14:37:15.192Z,46.85
2022-08-26T14:39:46.561Z,46.93
2022-08-26T14:42:24.274Z,46.98
2022-08-26T14:44:58.387Z,46.74
2022-08-26T14:47:27.841Z,46.58
2022-08-26T14:49:57.294Z,46.74
2022-08-26T14:52:26.818Z,46.38
2022-08-26T14:54:56.203Z,46.45
2022-08-26T14:57:25.238Z,46.28
2022-08-26T14:59:57.978Z,46.31
2022-08-26T15:02:32.848Z,45.99
2022-08-26T15:05:04.928Z,45.88
2022-08-26T15:07:36.517Z,45.78
2022-08-26T15:10:08.959Z,45.84
2022-08-26T15:12:39.232Z,45.79
2022-08-26T15:15:10.968Z,45.85
2022-08-26T15:17:41.162Z,45.61
2022-08-26T15:20:12.408Z,45.69
2022-08-26T15:22:43.743Z,45.61
2022-08-26T15:25:13.473Z,45.41
2022-08-26T15:27:42.719Z,45.40
2022-08-26T15:30:13.015Z,45.38
2022-08-26T15:32:42.124Z,45.31
2022-08-26T15:35:10.908Z,45.36
2022-08-26T15:37:40.294Z,45.37
2022-08-26T15:40:10.382Z,45.42
2022-08-26T15:43:18.460Z,45.26
2022-08-26T15:46:15.412Z,45.40
2022-08-26T15:49:09.643Z,45.18
2022-08-26T15:52:32.964Z,45.24
2022-08-26T15:55:28.064Z,45.16
2022-08-26T15:58:12.715Z,45.10
2022-08-26T16:01:24.380Z,45.09
2022-08-26T16:04:47.722Z,45.11
2022-08-26T16:07:54.872Z,44.98
2022-08-26T16:11:03.379Z,44.98
2022-08-26T16:14:10.082Z,44.85
2022-08-26T16:17:17.055Z,44.67
2022-08-26T16:20:24.166Z,44.77
2022-08-26T16:23:31.102Z,44.80
2022-08-26T16:26:37.576Z,44.72
2022-08-26T16:29:43.992Z,44.87
2022-08-26T16:32:52.116Z,44.79
2022-08-26T16:35:59.306Z,44.67
2022-08-26T16:39:06.091Z,44.64
2022-08-26T16:42:13.103Z,44.73
2022-08-26T16:45:20.129Z,44.84
2022-08-26T16:48:27.166Z,44.83
2022-08-26T16:51:38.002Z,44.83
2022-08-26T16:54:44.563Z,44.94
2022-08-26T16:57:51.072Z,44.94
2022-08-26T17:00:58.113Z,44.98
2022-08-26T17:04:05.131Z,45.09
2022-08-26T17:07:11.933Z,45.03
2022-08-26T17:10:19.019Z,45.36
2022-08-26T17:13:35.719Z,45.93
2022-08-26T17:16:43.325Z,46.24
2022-08-26T17:19:50.044Z,46.31
2022-08-26T17:22:57.142Z,46.59
2022-08-26T17:26:04.311Z,46.86
2022-08-26T17:29:11.009Z,47.13
2022-08-26T17:32:18.098Z,47.10
2022-08-26T17:35:25.101Z,47.31
2022-08-26T17:38:32.114Z,47.48
2022-08-26T17:41:39.124Z,47.74
2022-08-26T17:44:45.637Z,47.86
2022-08-26T17:47:34.935Z,48.07
2022-08-26T17:50:18.731Z,48.15
2022-08-26T17:52:58.726Z,48.30
2022-08-26T17:55:31.548Z,48.53
2022-08-26T17:58:06.238Z,48.73
2022-08-26T18:00:36.109Z,48.88
2022-08-26T18:03:07.391Z,49.04
2022-08-26T18:05:35.919Z,49.28
2022-08-26T18:08:04.379Z,49.43
2022-08-26T18:10:36.325Z,49.63
2022-08-26T18:13:07.260Z,49.79
2022-08-26T18:15:43.971Z,50.09
2022-08-26T18:18:33.730Z,50.31
2022-08-26T18:21:27.170Z,50.42
2022-08-26T18:24:02.325Z,50.78
2022-08-26T18:26:37.356Z,51.02
2022-08-26T18:29:29.396Z,51.19
2022-08-26T18:32:06.388Z,51.35
2022-08-26T18:34:40.820Z,51.51
2022-08-26T18:37:40.217Z,51.63
2022-08-26T18:40:46.779Z,51.79
2022-08-26T18:43:53.978Z,51.83
2022-08-26T18:47:12.506Z,52.07
2022-08-26T18:50:21.061Z,52.00
2022-08-26T18:56:42.473Z,51.75
2022-08-26T18:59:27.953Z,51.78
2022-08-26T19:02:26.377Z,51.74
2022-08-26T19:05:32.749Z,51.78
2022-08-26T19:08:44.573Z,51.70
2022-08-26T19:11:30.187Z,51.78
2022-08-26T19:14:02.311Z,51.82
2022-08-26T19:16:30.916Z,51.84
2022-08-26T19:19:01.725Z,51.84
2022-08-26T19:21:32.193Z,51.91
2022-08-26T19:24:03.716Z,51.91
2022-08-26T19:26:32.823Z,52.08
2022-08-26T19:29:01.603Z,52.23
2022-08-26T19:31:30.038Z,52.40
2022-08-26T19:33:59.136Z,52.30
2022-08-26T19:36:29.319Z,52.60
2022-08-26T19:38:58.779Z,52.62
2022-08-26T19:41:37.443Z,52.67
2022-08-26T19:44:35.074Z,52.67
2022-08-26T19:47:05.990Z,52.84
2022-08-26T19:49:37.920Z,53.04
2022-08-26T19:52:08.456Z,52.97
2022-08-26T19:54:37.492Z,53.08
2022-08-26T19:57:06.659Z,53.04
2022-08-26T19:59:36.419Z,53.19
2022-08-26T20:02:09.989Z,53.31
2022-08-26T20:04:42.040Z,53.36
2022-08-26T20:07:13.082Z,53.32
2022-08-26T20:09:45.473Z,53.28
2022-08-26T20:12:15.578Z,53.28
2022-08-26T20:14:44.842Z,53.39
2022-08-26T20:17:16.297Z,53.24
2022-08-26T20:20:03.606Z,53.31
2022-08-26T20:22:33.160Z,53.36
2022-08-26T20:25:01.466Z,53.35
2022-08-26T20:27:37.711Z,53.47
2022-08-26T20:30:09.050Z,53.45
2022-08-26T20:32:38.710Z,53.32
2022-08-26T20:35:09.758Z,53.34
2022-08-26T20:37:38.942Z,53.48
2022-08-26T20:40:09.616Z,53.38
2022-08-26T20:42:38.239Z,53.55
2022-08-26T20:45:08.490Z,53.71
2022-08-26T20:47:37.447Z,53.69
2022-08-26T20:50:08.335Z,53.74
2022-08-26T20:52:37.316Z,53.85
2022-08-26T20:55:06.091Z,53.69
2022-08-26T20:57:34.245Z,53.73
2022-08-26T21:00:02.706Z,53.83
2022-08-26T21:02:31.576Z,53.88
2022-08-26T21:05:00.441Z,53.75
2022-08-26T21:07:30.509Z,53.88
2022-08-26T21:09:59.573Z,53.95
2022-08-26T21:12:27.753Z,54.06
2022-08-26T21:14:56.166Z,54.12
2022-08-26T21:17:24.489Z,54.04
2022-08-26T21:19:53.533Z,54.05
2022-08-26T21:22:21.925Z,54.32
2022-08-26T21:24:50.358Z,54.30
2022-08-26T21:27:26.375Z,54.17
2022-08-26T21:29:55.624Z,54.22
2022-08-26T21:32:24.290Z,54.27
2022-08-26T21:34:57.947Z,54.23
2022-08-26T21:37:28.673Z,54.21
2022-08-26T21:39:58.750Z,54.19
2022-08-26T21:42:27.440Z,54.12
2022-08-26T21:44:56.332Z,54.15
2022-08-26T21:47:25.325Z,54.16
2022-08-26T21:49:54.102Z,54.15
2022-08-26T21:52:22.719Z,54.31
2022-08-26T21:54:51.082Z,54.25
2022-08-26T21:57:21.997Z,54.21
2022-08-26T21:59:50.801Z,54.19
2022-08-26T22:02:19.451Z,54.16
2022-08-26T22:04:48.962Z,54.13
2022-08-26T22:07:20.177Z,54.34
2022-08-26T22:09:50.271Z,54.24
2022-08-26T22:12:19.676Z,54.30
2022-08-26T22:14:48.500Z,54.43
2022-08-26T22:17:17.567Z,54.48
2022-08-26T22:19:46.796Z,54.34
2022-08-26T22:22:16.165Z,54.51
2022-08-26T22:24:45.640Z,54.53
2022-08-26T22:27:15.002Z,54.49
2022-08-26T22:29:44.232Z,54.64
2022-08-26T22:32:13.545Z,54.59
2022-08-26T22:34:42.956Z,54.59
2022-08-26T22:37:14.491Z,54.63
2022-08-26T22:39:43.665Z,54.72
2022-08-26T22:42:12.512Z,54.75
2022-08-26T22:44:41.645Z,54.67
2022-08-26T22:47:10.926Z,54.79
2022-08-26T22:49:39.315Z,54.81
2022-08-26T22:52:10.241Z,54.76
2022-08-26T22:54:39.379Z,54.82
2022-08-26T22:57:11.328Z,54.76
2022-08-26T22:59:41.126Z,54.99
2022-08-26T23:02:12.828Z,54.91
2022-08-26T23:04:42.105Z,54.86
2022-08-26T23:07:11.135Z,54.94
2022-08-26T23:09:40.340Z,54.93
2022-08-26T23:12:09.639Z,55.04
2022-08-26T23:14:41.145Z,54.98
2022-08-26T23:17:13.532Z,54.99
2022-08-26T23:19:42.896Z,54.93
2022-08-26T23:22:12.157Z,54.98
2022-08-26T23:24:40.815Z,55.07
2022-08-26T23:27:10.781Z,54.99
2022-08-26T23:29:40.284Z,55.05
2022-08-26T23:32:09.795Z,55.14
2022-08-26T23:34:56.716Z,55.14
2022-08-26T23:37:32.699Z,55.19
2022-08-26T23:40:09.287Z,55.33
2022-08-26T23:42:41.485Z,55.27
2022-08-26T23:45:13.435Z,55.29
2022-08-26T23:47:42.336Z,55.38
2022-08-26T23:50:11.906Z,55.41
2022-08-26T23:52:59.666Z,55.45
2022-08-26T23:55:28.688Z,55.60
2022-08-26T23:57:57.688Z,55.60
